»·PEaware :: DAL172 KSAN-KSEA

DAL172 :: KSAN-KSEA

FLIGHT INFORMATION

Flight Status: Arrived
Operator:
Delta Air Lines
More flights by this operator :: More flights under this callsign
Pilot: Tim M. (868)
Aircraft: BOEING 737-700
(B737)
More flights by this aircraft type
Origin: KSAN San Diego Intl-Lindbergh
United States
Destination: KSEA Seattle-Tacoma Intl
United States
More flights between these airports :: More routes between these airports
Route: PADRZ2 EHF DCT SHIMR DCT BTG HAWKZ7
File this flight plan on PilotEdge
Remarks:
Altitude:
(Current/Filed)
40,000ft
Speed:
(Current/Filed)
441kts
Departed: 22-Aug-20 07:06 PM
Arrived: 22-Aug-20 09:21 PM
Distance/Time
Traveled:
912nm/2:15
Distance/Time
To Go:
Arrived

Flight Plot

Page will automatically refresh every two minutes.

Flight plan parsing failed; only flown route is shown


Map Options




Map Legend


Flown Route
Filed Route
Departure Airport
Arrival Airport
Navaid (VOR, NDB)
Fix

Horizontal Profiles

Position Reports

Time Latitude Longitude Heading Altitude Ground
Speed
22-Aug-20 18:23 32.733250 -117.196023 199 25ft 0kts
22-Aug-20 18:24 32.733250 -117.196023 199 25ft 0kts
22-Aug-20 18:25 32.733250 -117.196023 199 25ft 0kts
22-Aug-20 18:26 32.733250 -117.196023 199 25ft 0kts
22-Aug-20 18:27 32.733250 -117.196023 199 25ft 0kts
22-Aug-20 18:28 32.733250 -117.196023 199 25ft 0kts
22-Aug-20 18:29 32.733250 -117.196023 199 25ft 0kts
22-Aug-20 18:30 32.733250 -117.196023 199 25ft 0kts
22-Aug-20 18:31 32.733250 -117.196023 199 25ft 0kts
22-Aug-20 18:32 32.733250 -117.196023 199 25ft 0kts
22-Aug-20 18:33 32.733250 -117.196023 199 25ft 0kts
22-Aug-20 18:34 32.733250 -117.196023 199 25ft 0kts
22-Aug-20 18:35 32.733250 -117.196023 199 25ft 0kts
22-Aug-20 18:36 32.733250 -117.196023 199 25ft 0kts
22-Aug-20 18:37 32.733250 -117.196023 199 25ft 0kts
22-Aug-20 18:38 32.733250 -117.196023 199 25ft 0kts
22-Aug-20 18:39 32.733250 -117.196023 199 25ft 0kts
22-Aug-20 18:40 32.733250 -117.196023 199 25ft 0kts
22-Aug-20 18:41 32.733250 -117.196023 199 25ft 0kts
22-Aug-20 18:42 32.733250 -117.196023 199 25ft 0kts
22-Aug-20 18:43 32.733250 -117.196023 199 25ft 0kts
22-Aug-20 18:44 32.733250 -117.196023 199 25ft 0kts
22-Aug-20 18:45 32.733250 -117.196023 199 25ft 0kts
22-Aug-20 18:46 32.733250 -117.196023 199 25ft 0kts
22-Aug-20 18:47 32.733250 -117.196023 199 25ft 0kts
22-Aug-20 18:48 32.733250 -117.196023 199 25ft 0kts
22-Aug-20 18:49 32.733250 -117.196023 199 25ft 0kts
22-Aug-20 18:50 32.733250 -117.196023 199 25ft 0kts
22-Aug-20 18:51 32.733250 -117.196023 199 25ft 0kts
22-Aug-20 18:52 32.733250 -117.196023 199 25ft 0kts
22-Aug-20 18:53 32.733250 -117.196023 199 25ft 0kts
22-Aug-20 18:54 32.733250 -117.196023 199 25ft 0kts
22-Aug-20 18:55 32.733250 -117.196023 199 25ft 0kts
22-Aug-20 18:56 32.733864 -117.195920 187 25ft 2kts
22-Aug-20 18:57 32.734063 -117.195955 86 25ft 0kts
22-Aug-20 18:58 32.734063 -117.195955 86 25ft 0kts
22-Aug-20 18:59 32.734063 -117.195955 86 25ft 0kts
22-Aug-20 19:00 32.733703 -117.194553 104 25ft 10kts
22-Aug-20 19:01 32.732574 -117.189910 106 25ft 17kts
22-Aug-20 19:02 32.731211 -117.184257 108 25ft 17kts
22-Aug-20 19:03 32.729923 -117.179039 100 25ft 14kts
22-Aug-20 19:04 32.730368 -117.176385 286 25ft 12kts
22-Aug-20 19:05 32.737874 -117.205181 290 580ft 142kts
22-Aug-20 19:06 32.759941 -117.248983 301 2627ft 162kts
22-Aug-20 19:07 32.788265 -117.298779 302 4059ft 218kts
22-Aug-20 19:08 32.830410 -117.366492 307 5713ft 280kts
22-Aug-20 19:09 32.879590 -117.442324 307 8721ft 299kts
22-Aug-20 19:10 32.932568 -117.524820 307 11215ft 342kts
22-Aug-20 19:11 32.992620 -117.618254 307 14254ft 363kts
22-Aug-20 19:12 33.055428 -117.716259 308 17380ft 380kts
22-Aug-20 19:13 33.136020 -117.802970 318 20273ft 399kts
22-Aug-20 19:14 33.220342 -117.888325 319 22722ft 415kts
22-Aug-20 19:15 33.311246 -117.976618 319 24908ft 427kts
22-Aug-20 19:16 33.405254 -118.068156 319 26878ft 441kts
22-Aug-20 19:17 33.486792 -118.148332 318 28451ft 450kts
22-Aug-20 19:18 33.569724 -118.227505 324 29843ft 461kts
22-Aug-20 19:19 33.675231 -118.290916 334 31196ft 472kts
22-Aug-20 19:20 33.789271 -118.353161 336 32426ft 481kts
22-Aug-20 19:21 33.913347 -118.414876 335 33962ft 481kts
22-Aug-20 19:23 34.039688 -118.465700 349 35487ft 481kts
22-Aug-20 19:24 34.167038 -118.485341 351 36814ft 479kts
22-Aug-20 19:25 34.299225 -118.505549 351 38030ft 477kts
22-Aug-20 19:26 34.430913 -118.525803 351 39078ft 476kts
22-Aug-20 19:27 34.561613 -118.546031 351 39941ft 474kts
22-Aug-20 19:28 34.692668 -118.566388 351 39956ft 472kts
22-Aug-20 19:29 34.822813 -118.586645 350 40001ft 472kts
22-Aug-20 19:30 34.953157 -118.607071 350 40049ft 471kts
22-Aug-20 19:31 35.059601 -118.663978 319 40085ft 462kts
22-Aug-20 19:32 35.157528 -118.763209 316 40059ft 460kts
22-Aug-20 19:33 35.248255 -118.855415 317 39998ft 460kts
22-Aug-20 19:34 35.346893 -118.955479 316 39920ft 461kts
22-Aug-20 19:35 35.445385 -119.056349 317 39877ft 461kts
22-Aug-20 19:36 35.561627 -119.125110 341 39870ft 471kts
22-Aug-20 19:37 35.687499 -119.168478 341 39871ft 470kts
22-Aug-20 19:38 35.813784 -119.212947 341 39870ft 470kts
22-Aug-20 19:38 35.918617 -119.249805 341 39874ft 470kts
22-Aug-20 19:40 36.065237 -119.301786 341 39879ft 469kts
22-Aug-20 19:41 36.190773 -119.346505 341 39876ft 469kts
22-Aug-20 19:41 36.294825 -119.383687 341 39870ft 469kts
22-Aug-20 19:42 36.420732 -119.428814 341 39872ft 469kts
22-Aug-20 19:44 36.566715 -119.481336 341 39874ft 468kts
22-Aug-20 19:44 36.671219 -119.519055 341 39878ft 468kts
22-Aug-20 19:45 36.795879 -119.564200 341 39878ft 466kts
22-Aug-20 19:46 36.920654 -119.609535 341 39881ft 466kts
22-Aug-20 19:47 37.043656 -119.654372 341 39893ft 466kts
22-Aug-20 19:48 37.167865 -119.699813 341 39912ft 464kts
22-Aug-20 19:49 37.291859 -119.745326 341 39923ft 464kts
22-Aug-20 19:50 37.415855 -119.790996 341 39947ft 463kts
22-Aug-20 19:51 37.539564 -119.836719 341 39985ft 463kts
22-Aug-20 19:52 37.663005 -119.882502 341 39986ft 463kts
22-Aug-20 19:53 37.786702 -119.928539 341 39960ft 462kts
22-Aug-20 19:54 37.909967 -119.974576 341 39975ft 462kts
22-Aug-20 19:55 38.033481 -120.020743 341 40003ft 462kts
22-Aug-20 19:56 38.156600 -120.067146 340 40028ft 462kts
22-Aug-20 19:57 38.280369 -120.111319 344 40064ft 463kts
22-Aug-20 19:58 38.406182 -120.147567 344 40079ft 463kts
22-Aug-20 19:59 38.531868 -120.184773 344 40114ft 463kts
22-Aug-20 20:00 38.656779 -120.221793 343 40153ft 462kts
22-Aug-20 20:01 38.782134 -120.259200 343 40196ft 462kts
22-Aug-20 20:02 38.899432 -120.294381 343 40220ft 461kts
22-Aug-20 20:03 39.024164 -120.331935 343 40233ft 461kts
22-Aug-20 20:04 39.149460 -120.369798 342 40239ft 461kts
22-Aug-20 20:05 39.274112 -120.407606 342 40239ft 461kts
22-Aug-20 20:06 39.399247 -120.445700 342 40243ft 460kts
22-Aug-20 20:07 39.524067 -120.483838 342 40242ft 460kts
22-Aug-20 20:08 39.648591 -120.522028 342 40231ft 460kts
22-Aug-20 20:09 39.773225 -120.560391 342 40218ft 460kts
22-Aug-20 20:10 39.897973 -120.598934 342 40186ft 460kts
22-Aug-20 20:11 40.022442 -120.637518 341 40150ft 460kts
22-Aug-20 20:12 40.147058 -120.676320 341 40129ft 459kts
22-Aug-20 20:13 40.271314 -120.715147 341 40119ft 459kts
22-Aug-20 20:14 40.395562 -120.754118 341 40116ft 459kts
22-Aug-20 20:15 40.519771 -120.793224 341 40106ft 459kts
22-Aug-20 20:16 40.644208 -120.832549 340 40104ft 459kts
22-Aug-20 20:17 40.768314 -120.871922 340 40099ft 459kts
22-Aug-20 20:18 40.892476 -120.911466 340 40098ft 458kts
22-Aug-20 20:19 41.016386 -120.951080 340 40092ft 458kts
22-Aug-20 20:20 41.140349 -120.990865 340 40097ft 457kts
22-Aug-20 20:21 41.264144 -121.030752 340 40103ft 457kts
22-Aug-20 20:22 41.387988 -121.070809 340 40116ft 457kts
22-Aug-20 20:23 41.511185 -121.110814 339 40118ft 456kts
22-Aug-20 20:24 41.634555 -121.151034 339 40116ft 456kts
22-Aug-20 20:25 41.757821 -121.191377 339 40112ft 456kts
22-Aug-20 20:26 41.881270 -121.231941 339 40108ft 456kts
22-Aug-20 20:27 42.004471 -121.272584 339 40097ft 456kts
22-Aug-20 20:28 42.127312 -121.313268 339 40093ft 454kts
22-Aug-20 20:29 42.249687 -121.353964 339 40089ft 454kts
22-Aug-20 20:30 42.372329 -121.394910 339 40087ft 454kts
22-Aug-20 20:31 42.495209 -121.436101 339 40102ft 454kts
22-Aug-20 20:32 42.617601 -121.477298 339 40107ft 454kts
22-Aug-20 20:33 42.740174 -121.518723 339 40103ft 454kts
22-Aug-20 20:34 42.862897 -121.560366 339 40111ft 454kts
22-Aug-20 20:35 42.985342 -121.602084 339 40116ft 453kts
22-Aug-20 20:36 43.107399 -121.643842 338 40122ft 453kts
22-Aug-20 20:37 43.229963 -121.685945 338 40129ft 453kts
22-Aug-20 20:38 43.351977 -121.728036 338 40129ft 453kts
22-Aug-20 20:39 43.474208 -121.770375 338 40129ft 453kts
22-Aug-20 20:40 43.596540 -121.812927 338 40140ft 453kts
22-Aug-20 20:41 43.718954 -121.855686 338 40147ft 453kts
22-Aug-20 20:42 43.841189 -121.898564 338 40148ft 453kts
22-Aug-20 20:43 43.963270 -121.941568 338 40138ft 453kts
22-Aug-20 20:44 44.085244 -121.984717 338 40126ft 453kts
22-Aug-20 20:45 44.207375 -122.028107 338 40109ft 452kts
22-Aug-20 20:46 44.329364 -122.071629 338 40097ft 452kts
22-Aug-20 20:47 44.451485 -122.115391 338 40087ft 452kts
22-Aug-20 20:48 44.573384 -122.159260 338 40079ft 452kts
22-Aug-20 20:49 44.695141 -122.203268 338 40079ft 452kts
22-Aug-20 20:50 44.816719 -122.247403 338 40057ft 451kts
22-Aug-20 20:51 44.938184 -122.291689 338 40052ft 451kts
22-Aug-20 20:52 45.059453 -122.336095 338 40051ft 451kts
22-Aug-20 20:53 45.177555 -122.379533 337 40044ft 450kts
22-Aug-20 20:54 45.296602 -122.423507 337 40041ft 449kts
22-Aug-20 20:55 45.417495 -122.468357 337 40041ft 449kts
22-Aug-20 20:56 45.538863 -122.513417 337 39926ft 451kts
22-Aug-20 20:57 45.659851 -122.558829 338 37551ft 450kts
22-Aug-20 20:58 45.782127 -122.601995 344 34678ft 456kts
22-Aug-20 20:59 45.907831 -122.631301 345 31626ft 457kts
22-Aug-20 21:00 46.030729 -122.661671 345 29226ft 440kts
22-Aug-20 21:01 46.149761 -122.688924 347 26834ft 426kts
22-Aug-20 21:02 46.265441 -122.711317 347 24485ft 412kts
22-Aug-20 21:03 46.378109 -122.726017 354 22195ft 404kts
22-Aug-20 21:04 46.488905 -122.728391 353 19944ft 391kts
22-Aug-20 21:05 46.596066 -122.732124 353 17676ft 380kts
22-Aug-20 21:06 46.700702 -122.735894 354 15367ft 370kts
22-Aug-20 21:07 46.798890 -122.720062 26 13581ft 355kts
22-Aug-20 21:08 46.873881 -122.627741 42 11419ft 351kts
22-Aug-20 21:09 46.939626 -122.533785 46 10120ft 314kts
22-Aug-20 21:10 46.996585 -122.456518 32 8834ft 288kts
22-Aug-20 21:11 47.065384 -122.398504 29 7117ft 281kts
22-Aug-20 21:12 47.125782 -122.347425 28 5929ft 259kts
22-Aug-20 21:13 47.186159 -122.303576 17 4803ft 224kts
22-Aug-20 21:14 47.243749 -122.306168 347 3807ft 191kts
22-Aug-20 21:15 47.291923 -122.309239 0 2968ft 153kts
22-Aug-20 21:16 47.328344 -122.307929 358 2220ft 122kts
22-Aug-20 21:17 47.362861 -122.308248 358 1715ft 129kts
22-Aug-20 21:18 47.398133 -122.308515 2 997ft 126kts
22-Aug-20 21:19 47.432224 -122.308154 2 471ft 120kts
22-Aug-20 21:20 47.449213 -122.307895 1 441ft 21kts
22-Aug-20 21:21 47.447933 -122.306300 180 441ft 13kts
22-Aug-20 21:23 47.443906 -122.306332 179 441ft 17kts
22-Aug-20 21:24 47.439701 -122.306363 177 441ft 13kts
22-Aug-20 21:25 47.437200 -122.304753 91 441ft 12kts
22-Aug-20 21:26 47.437640 -122.300113 99 441ft 11kts
22-Aug-20 21:27 47.438011 -122.297560 12 441ft 0kts
22-Aug-20 21:28 47.438012 -122.297560 12 441ft 0kts
22-Aug-20 21:29 47.438012 -122.297560 12 441ft 0kts
22-Aug-20 21:30 47.438012 -122.297560 12 441ft 0kts

Navigation Log

Ident Type
Flight plan parsing failed, navigation log unavailable